createdAt,value
2022-12-18T00:01:32.239Z,100.00
2022-12-18T00:04:03.445Z,100.00
2022-12-18T00:06:33.553Z,100.00
2022-12-18T00:09:02.125Z,100.00
2022-12-18T00:11:31.751Z,100.00
2022-12-18T00:14:01.027Z,100.00
2022-12-18T00:16:30.892Z,100.00
2022-12-18T00:19:01.864Z,100.00
2022-12-18T00:21:30.451Z,100.00
2022-12-18T00:23:58.948Z,100.00
2022-12-18T00:26:28.567Z,100.00
2022-12-18T00:29:01.257Z,100.00
2022-12-18T00:31:32.253Z,100.00
2022-12-18T00:34:03.580Z,100.00
2022-12-18T00:36:32.838Z,100.00
2022-12-18T00:39:02.174Z,100.00
2022-12-18T00:41:48.087Z,100.00
2022-12-18T00:44:18.600Z,100.00
2022-12-18T00:46:47.772Z,100.00
2022-12-18T00:49:17.767Z,100.00
2022-12-18T00:51:45.661Z,100.00
2022-12-18T00:54:13.475Z,100.00
2022-12-18T00:56:49.738Z,100.00
2022-12-18T00:59:19.285Z,100.00
2022-12-18T01:01:47.817Z,100.00
2022-12-18T01:04:17.189Z,100.00
2022-12-18T01:06:46.799Z,100.00
2022-12-18T01:09:14.695Z,100.00
2022-12-18T01:11:42.429Z,100.00
2022-12-18T01:14:12.347Z,100.00
2022-12-18T01:16:40.231Z,100.00
2022-12-18T01:19:08.295Z,100.00
2022-12-18T01:21:37.414Z,100.00
2022-12-18T01:24:06.813Z,100.00
2022-12-18T01:26:35.006Z,100.00
2022-12-18T01:29:02.770Z,100.00
2022-12-18T01:31:33.161Z,100.00
2022-12-18T01:34:04.481Z,100.00
2022-12-18T01:36:34.157Z,100.00
2022-12-18T01:39:05.889Z,100.00
2022-12-18T01:41:48.831Z,100.00
2022-12-18T01:45:02.477Z,100.00
2022-12-18T01:47:35.298Z,100.00
2022-12-18T01:50:07.312Z,100.00
2022-12-18T01:52:35.620Z,100.00
2022-12-18T01:55:07.923Z,100.00
2022-12-18T01:57:36.367Z,100.00
2022-12-18T02:00:08.341Z,100.00
2022-12-18T02:02:42.890Z,100.00
2022-12-18T02:05:13.511Z,100.00
2022-12-18T02:07:53.542Z,100.00
2022-12-18T02:10:29.015Z,100.00
2022-12-18T02:13:07.909Z,100.00
2022-12-18T02:15:42.676Z,100.00
2022-12-18T02:18:14.955Z,100.00
2022-12-18T02:20:47.699Z,100.00
2022-12-18T02:23:32.152Z,100.00
2022-12-18T02:26:12.910Z,100.00
2022-12-18T02:28:46.119Z,100.00
2022-12-18T02:31:17.817Z,100.00
2022-12-18T02:33:47.795Z,100.00
2022-12-18T02:36:18.514Z,100.00
2022-12-18T02:38:48.520Z,100.00
2022-12-18T02:41:19.893Z,100.00
2022-12-18T02:43:51.700Z,100.00
2022-12-18T02:46:29.346Z,100.00
2022-12-18T02:49:05.073Z,100.00
2022-12-18T02:51:42.457Z,100.00
2022-12-18T02:54:20.675Z,100.00
2022-12-18T02:56:53.728Z,100.00
2022-12-18T02:59:31.048Z,100.00
2022-12-18T03:02:03.053Z,100.00
2022-12-18T03:04:40.254Z,100.00
2022-12-18T03:07:14.929Z,100.00
2022-12-18T03:09:49.491Z,100.00
2022-12-18T03:12:25.287Z,100.00
2022-12-18T03:15:01.944Z,100.00
2022-12-18T03:17:33.908Z,100.00
2022-12-18T03:20:07.915Z,100.00
2022-12-18T03:22:39.457Z,100.00
2022-12-18T03:25:11.722Z,100.00
2022-12-18T03:27:47.003Z,100.00
2022-12-18T03:30:17.776Z,100.00
2022-12-18T03:32:50.879Z,100.00
2022-12-18T03:35:25.091Z,100.00
2022-12-18T03:37:52.949Z,100.00
2022-12-18T03:40:26.541Z,100.00
2022-12-18T03:43:01.430Z,100.00
2022-12-18T03:45:36.662Z,100.00
2022-12-18T03:48:11.557Z,100.00
2022-12-18T03:50:49.031Z,100.00
2022-12-18T03:53:28.054Z,100.00
2022-12-18T03:55:57.321Z,100.00
2022-12-18T03:58:31.733Z,100.00
2022-12-18T04:01:17.420Z,100.00
2022-12-18T04:03:48.199Z,100.00
2022-12-18T04:06:17.385Z,100.00
2022-12-18T04:08:47.826Z,100.00
2022-12-18T04:11:18.997Z,100.00
2022-12-18T04:13:50.053Z,100.00
2022-12-18T04:16:23.798Z,100.00
2022-12-18T04:18:55.444Z,100.00
2022-12-18T04:21:25.523Z,100.00
2022-12-18T04:23:54.174Z,100.00
2022-12-18T04:26:24.434Z,100.00
2022-12-18T04:29:14.464Z,100.00
2022-12-18T04:31:42.260Z,100.00
2022-12-18T04:34:13.638Z,100.00
2022-12-18T04:36:48.953Z,100.00
2022-12-18T04:39:17.334Z,100.00
2022-12-18T04:41:45.642Z,100.00
2022-12-18T04:44:15.982Z,100.00
2022-12-18T04:46:44.816Z,100.00
2022-12-18T04:49:13.371Z,100.00
2022-12-18T04:51:41.579Z,100.00
2022-12-18T04:54:09.499Z,100.00
2022-12-18T04:56:37.563Z,100.00
2022-12-18T04:59:05.748Z,100.00
2022-12-18T05:01:35.401Z,100.00
2022-12-18T05:04:05.457Z,100.00
2022-12-18T05:06:33.306Z,100.00
2022-12-18T05:09:01.247Z,100.00
2022-12-18T05:11:29.041Z,100.00
2022-12-18T05:13:56.701Z,100.00
2022-12-18T05:16:24.483Z,100.00
2022-12-18T05:18:53.525Z,100.00
2022-12-18T05:21:21.225Z,100.00
2022-12-18T05:23:48.927Z,100.00
2022-12-18T05:26:19.107Z,100.00
2022-12-18T05:28:47.174Z,100.00
2022-12-18T05:31:15.539Z,100.00
2022-12-18T05:33:43.973Z,100.00
2022-12-18T05:36:13.618Z,100.00
2022-12-18T05:38:41.744Z,100.00
2022-12-18T05:41:10.539Z,100.00
2022-12-18T05:43:39.750Z,100.00
2022-12-18T05:46:08.567Z,100.00
2022-12-18T05:48:36.375Z,100.00
2022-12-18T05:51:08.939Z,100.00
2022-12-18T05:53:39.431Z,100.00
2022-12-18T05:56:09.927Z,100.00
2022-12-18T05:58:38.627Z,100.00
2022-12-18T06:01:11.150Z,100.00
2022-12-18T06:03:39.173Z,100.00
2022-12-18T06:06:14.959Z,100.00
2022-12-18T06:08:46.398Z,100.00
2022-12-18T06:11:17.662Z,100.00
2022-12-18T06:13:45.380Z,100.00
2022-12-18T06:16:13.142Z,100.00
2022-12-18T06:18:41.066Z,100.00
2022-12-18T06:21:08.871Z,100.00
2022-12-18T06:23:36.837Z,100.00
2022-12-18T06:26:10.861Z,100.00
2022-12-18T06:28:38.861Z,100.00
2022-12-18T06:31:07.446Z,100.00
2022-12-18T06:33:35.339Z,100.00
2022-12-18T06:36:04.783Z,100.00
2022-12-18T06:38:33.730Z,100.00
2022-12-18T06:41:01.651Z,100.00
2022-12-18T06:43:30.697Z,100.00
2022-12-18T06:46:01.494Z,100.00
2022-12-18T06:48:29.471Z,100.00
2022-12-18T06:50:57.218Z,100.00
2022-12-18T06:53:24.983Z,100.00
2022-12-18T06:55:52.733Z,100.00
2022-12-18T06:58:20.606Z,100.00
2022-12-18T07:00:49.688Z,100.00
2022-12-18T07:03:17.479Z,100.00
2022-12-18T07:05:45.137Z,100.00
2022-12-18T07:08:12.878Z,100.00
2022-12-18T07:10:47.488Z,100.00
2022-12-18T07:13:16.778Z,100.00
2022-12-18T07:15:44.668Z,100.00
2022-12-18T07:18:14.427Z,100.00
2022-12-18T07:20:42.991Z,100.00
2022-12-18T07:23:10.655Z,100.00
2022-12-18T07:25:38.677Z,100.00
2022-12-18T07:28:06.919Z,100.00
2022-12-18T07:30:34.854Z,100.00
2022-12-18T07:33:02.579Z,100.00
2022-12-18T07:35:31.732Z,100.00
2022-12-18T07:37:59.488Z,100.00
2022-12-18T07:40:28.303Z,100.00
2022-12-18T07:42:56.004Z,100.00
2022-12-18T07:45:23.659Z,100.00
2022-12-18T07:47:51.374Z,100.00
2022-12-18T07:50:19.371Z,100.00
2022-12-18T07:52:48.547Z,100.00
2022-12-18T07:55:16.396Z,100.00
2022-12-18T07:57:53.398Z,100.00
2022-12-18T08:00:23.351Z,100.00
2022-12-18T08:02:51.153Z,100.00
2022-12-18T08:05:19.334Z,100.00
2022-12-18T08:07:48.555Z,100.00
2022-12-18T08:10:16.780Z,100.00
2022-12-18T08:12:44.463Z,100.00
2022-12-18T08:15:12.539Z,100.00
2022-12-18T08:17:40.280Z,100.00
2022-12-18T08:20:09.118Z,100.00
2022-12-18T08:22:37.305Z,100.00
2022-12-18T08:25:07.566Z,100.00
2022-12-18T08:27:35.347Z,100.00
2022-12-18T08:30:03.844Z,100.00
2022-12-18T08:32:33.776Z,100.00
2022-12-18T08:35:01.571Z,100.00
2022-12-18T08:37:29.343Z,100.00
2022-12-18T08:39:57.079Z,100.00
2022-12-18T08:42:43.590Z,100.00
2022-12-18T08:45:11.631Z,100.00
2022-12-18T08:47:39.479Z,100.00
2022-12-18T08:50:08.073Z,100.00
2022-12-18T08:52:35.709Z,100.00
2022-12-18T08:55:03.375Z,100.00
2022-12-18T08:57:32.572Z,100.00
2022-12-18T09:00:00.356Z,100.00
2022-12-18T09:02:28.334Z,100.00
2022-12-18T09:04:57.748Z,100.00
2022-12-18T09:07:25.653Z,100.00
2022-12-18T09:09:53.339Z,100.00
2022-12-18T09:12:21.091Z,100.00
2022-12-18T09:14:50.154Z,100.00
2022-12-18T09:17:18.087Z,100.00
2022-12-18T09:19:45.867Z,100.00
2022-12-18T09:22:13.614Z,100.00
2022-12-18T09:24:41.285Z,100.00
2022-12-18T09:27:09.036Z,100.00
2022-12-18T09:29:36.772Z,100.00
2022-12-18T09:32:06.522Z,100.00
2022-12-18T09:34:34.639Z,100.00
2022-12-18T09:37:02.333Z,100.00
2022-12-18T09:39:30.143Z,100.00
2022-12-18T09:42:00.334Z,100.00
2022-12-18T09:44:31.928Z,100.00
2022-12-18T09:47:15.814Z,100.00
2022-12-18T09:49:45.506Z,100.00
2022-12-18T09:52:19.827Z,100.00
2022-12-18T09:54:54.059Z,100.00
2022-12-18T09:57:25.473Z,100.00
2022-12-18T09:59:57.139Z,100.00
2022-12-18T10:02:28.585Z,100.00
2022-12-18T10:05:07.051Z,100.00
2022-12-18T10:07:48.618Z,100.00
2022-12-18T10:10:28.313Z,100.00
2022-12-18T10:13:05.132Z,100.00
2022-12-18T10:15:41.447Z,100.00
2022-12-18T10:18:25.288Z,100.00
2022-12-18T10:20:58.137Z,97.30
2022-12-18T10:23:35.030Z,98.05
2022-12-18T10:26:06.225Z,94.40
2022-12-18T10:28:37.806Z,92.02
2022-12-18T10:31:07.588Z,90.20
2022-12-18T10:33:36.698Z,91.54
2022-12-18T10:36:05.001Z,92.93
2022-12-18T10:38:34.161Z,92.59
2022-12-18T10:41:05.944Z,94.05
2022-12-18T10:43:36.752Z,93.00
2022-12-18T10:46:21.944Z,94.45
2022-12-18T10:48:55.472Z,92.93
2022-12-18T10:51:26.984Z,95.38
2022-12-18T10:53:58.256Z,92.58
2022-12-18T10:56:28.009Z,94.06
2022-12-18T10:59:02.015Z,92.19
2022-12-18T11:01:34.105Z,94.18
2022-12-18T11:04:10.670Z,93.27
2022-12-18T11:06:55.852Z,92.78
2022-12-18T11:09:25.255Z,90.80
2022-12-18T11:11:54.869Z,91.84
2022-12-18T11:14:25.851Z,91.15
2022-12-18T11:17:26.259Z,91.24
2022-12-18T11:19:45.028Z,95.05
2022-12-18T11:22:22.661Z,94.87
2022-12-18T11:25:30.159Z,93.94
2022-12-18T11:27:50.409Z,100.00
2022-12-18T11:30:24.430Z,97.78
2022-12-18T11:32:55.219Z,95.53
2022-12-18T11:35:35.670Z,96.29
2022-12-18T11:38:12.062Z,100.00
2022-12-18T11:40:42.988Z,96.80
2022-12-18T11:43:15.204Z,100.00
2022-12-18T11:45:50.677Z,97.31
2022-12-18T11:48:23.304Z,95.83
2022-12-18T11:50:54.393Z,96.30
2022-12-18T11:53:22.511Z,91.93
2022-12-18T11:56:02.115Z,91.38
2022-12-18T11:58:49.031Z,90.79
2022-12-18T12:01:44.038Z,89.92
2022-12-18T12:04:49.399Z,90.76
2022-12-18T12:07:33.987Z,92.59
2022-12-18T12:10:14.333Z,85.41
2022-12-18T12:13:02.160Z,88.33
2022-12-18T12:15:41.515Z,89.59
2022-12-18T12:18:23.323Z,96.46
2022-12-18T12:21:00.408Z,94.22
2022-12-18T12:23:40.419Z,94.36
2022-12-18T12:26:11.918Z,92.48
2022-12-18T12:29:01.715Z,91.36
2022-12-18T12:31:44.070Z,90.86
2022-12-18T12:34:19.899Z,90.70
2022-12-18T12:37:00.687Z,94.24
2022-12-18T12:39:35.120Z,100.00
2022-12-18T12:42:21.853Z,100.00
2022-12-18T12:44:56.531Z,99.41
2022-12-18T12:47:37.700Z,99.58
2022-12-18T12:50:13.970Z,94.82
2022-12-18T12:52:45.443Z,98.20
2022-12-18T12:55:19.855Z,100.00
2022-12-18T12:57:58.098Z,100.00
2022-12-18T13:00:30.349Z,100.00
2022-12-18T13:03:04.986Z,100.00
2022-12-18T13:05:41.511Z,100.00
2022-12-18T13:08:11.354Z,100.00
2022-12-18T13:10:42.867Z,100.00
2022-12-18T13:13:13.314Z,100.00
2022-12-18T13:15:44.150Z,100.00
2022-12-18T13:18:23.507Z,100.00
2022-12-18T13:21:03.806Z,100.00
2022-12-18T13:23:35.197Z,100.00
2022-12-18T13:26:35.504Z,100.00
2022-12-18T13:29:07.194Z,100.00
2022-12-18T13:32:01.208Z,100.00
2022-12-18T13:34:32.091Z,100.00
2022-12-18T13:37:34.004Z,100.00
2022-12-18T13:40:02.121Z,100.00
2022-12-18T13:43:01.312Z,100.00
2022-12-18T13:45:47.567Z,100.00
2022-12-18T13:48:21.450Z,100.00
2022-12-18T13:50:57.122Z,100.00
2022-12-18T13:53:29.090Z,100.00
2022-12-18T13:55:57.253Z,100.00
2022-12-18T13:58:26.301Z,100.00
2022-12-18T14:00:54.196Z,100.00
2022-12-18T14:03:27.025Z,100.00
2022-12-18T14:06:02.341Z,100.00
2022-12-18T14:08:36.235Z,100.00
2022-12-18T14:11:07.880Z,100.00
2022-12-18T14:13:41.185Z,100.00
2022-12-18T14:16:10.104Z,100.00
2022-12-18T14:18:45.949Z,100.00
2022-12-18T14:21:23.661Z,100.00
2022-12-18T14:24:04.491Z,100.00
2022-12-18T14:26:34.204Z,100.00
2022-12-18T14:29:19.829Z,100.00
2022-12-18T14:32:10.580Z,100.00
2022-12-18T14:34:42.948Z,100.00
2022-12-18T14:37:12.468Z,100.00
2022-12-18T14:39:40.282Z,100.00
2022-12-18T14:42:12.164Z,100.00
2022-12-18T14:47:35.051Z,100.00
2022-12-18T14:50:02.992Z,100.00
2022-12-18T14:52:33.863Z,100.00
2022-12-18T14:55:01.591Z,100.00
2022-12-18T14:57:38.785Z,100.00
2022-12-18T15:00:17.116Z,100.00
2022-12-18T15:02:45.519Z,100.00
2022-12-18T15:05:20.828Z,100.00
2022-12-18T15:07:50.311Z,100.00
2022-12-18T15:10:21.070Z,100.00
2022-12-18T15:12:50.484Z,100.00
2022-12-18T15:15:57.192Z,100.00
2022-12-18T15:18:32.115Z,100.00
2022-12-18T15:21:02.190Z,100.00
2022-12-18T15:23:35.838Z,100.00
2022-12-18T15:26:07.218Z,100.00
2022-12-18T15:28:40.502Z,100.00
2022-12-18T15:31:24.691Z,100.00
2022-12-18T15:34:14.458Z,100.00
2022-12-18T15:36:42.520Z,100.00
2022-12-18T15:39:13.470Z,100.00
2022-12-18T15:41:41.527Z,100.00
2022-12-18T15:44:23.935Z,100.00
2022-12-18T15:46:53.017Z,100.00
2022-12-18T15:49:20.804Z,100.00
2022-12-18T15:51:53.307Z,100.00
2022-12-18T15:54:42.497Z,100.00
2022-12-18T15:57:29.090Z,100.00
2022-12-18T15:59:59.078Z,100.00
2022-12-18T16:02:29.609Z,100.00
2022-12-18T16:04:59.252Z,100.00
2022-12-18T16:07:30.321Z,100.00
2022-12-18T16:09:58.801Z,100.00
2022-12-18T16:12:28.191Z,100.00
2022-12-18T16:14:55.964Z,100.00
2022-12-18T16:17:23.742Z,100.00
2022-12-18T16:19:52.884Z,100.00
2022-12-18T16:22:23.447Z,100.00
2022-12-18T16:24:52.303Z,100.00
2022-12-18T16:27:20.778Z,100.00
2022-12-18T16:29:48.945Z,100.00
2022-12-18T16:32:19.228Z,100.00
2022-12-18T16:34:47.775Z,100.00
2022-12-18T16:37:18.107Z,100.00
2022-12-18T16:39:46.250Z,100.00
2022-12-18T16:42:17.780Z,100.00
2022-12-18T16:44:46.715Z,100.00
2022-12-18T16:47:15.590Z,100.00
2022-12-18T16:49:45.295Z,100.00
2022-12-18T16:52:15.966Z,100.00
2022-12-18T16:54:45.524Z,100.00
2022-12-18T16:57:15.760Z,100.00
2022-12-18T16:59:43.553Z,100.00
2022-12-18T17:02:15.540Z,100.00
2022-12-18T17:04:45.362Z,100.00
2022-12-18T17:07:13.250Z,100.00
2022-12-18T17:09:43.046Z,100.00
2022-12-18T17:12:11.350Z,100.00
2022-12-18T17:14:39.208Z,100.00
2022-12-18T17:17:20.853Z,100.00
2022-12-18T17:19:49.000Z,100.00
2022-12-18T17:22:16.722Z,100.00
2022-12-18T17:24:45.862Z,100.00
2022-12-18T17:27:13.630Z,100.00
2022-12-18T17:29:47.368Z,100.00
2022-12-18T17:32:15.744Z,100.00
2022-12-18T17:34:43.525Z,100.00
2022-12-18T17:37:11.291Z,100.00
2022-12-18T17:39:39.467Z,100.00
2022-12-18T17:42:10.668Z,100.00
2022-12-18T17:44:43.099Z,100.00
2022-12-18T17:47:12.070Z,100.00
2022-12-18T17:49:39.986Z,100.00
2022-12-18T17:52:08.072Z,100.00
2022-12-18T17:54:39.383Z,100.00
2022-12-18T17:57:09.034Z,100.00
2022-12-18T17:59:36.784Z,100.00
2022-12-18T18:02:04.691Z,100.00
2022-12-18T18:04:32.527Z,100.00
2022-12-18T18:07:00.322Z,100.00
2022-12-18T18:09:28.537Z,100.00
2022-12-18T18:12:14.783Z,100.00
2022-12-18T18:14:43.991Z,100.00
2022-12-18T18:17:11.967Z,100.00
2022-12-18T18:19:39.955Z,100.00
2022-12-18T18:22:08.251Z,100.00
2022-12-18T18:24:36.039Z,100.00
2022-12-18T18:27:03.899Z,100.00
2022-12-18T18:29:31.735Z,100.00
2022-12-18T18:32:01.044Z,100.00
2022-12-18T18:34:31.601Z,100.00
2022-12-18T18:37:01.198Z,100.00
2022-12-18T18:39:29.153Z,100.00
2022-12-18T18:41:57.047Z,100.00
2022-12-18T18:44:25.919Z,100.00
2022-12-18T18:46:55.071Z,100.00
2022-12-18T18:49:27.567Z,100.00
2022-12-18T18:51:56.883Z,100.00
2022-12-18T18:54:24.616Z,100.00
2022-12-18T18:59:40.605Z,100.00
2022-12-18T19:02:12.506Z,100.00
2022-12-18T19:04:46.199Z,100.00
2022-12-18T19:07:18.180Z,100.00
2022-12-18T19:10:01.522Z,100.00
2022-12-18T19:12:50.998Z,100.00
2022-12-18T19:15:18.871Z,100.00
2022-12-18T19:17:47.404Z,100.00
2022-12-18T19:20:17.156Z,100.00
2022-12-18T19:22:46.101Z,100.00
2022-12-18T19:25:28.153Z,100.00
2022-12-18T19:28:08.274Z,100.00
2022-12-18T19:30:47.028Z,100.00
2022-12-18T19:33:34.326Z,100.00
2022-12-18T19:36:10.987Z,100.00
2022-12-18T19:38:39.177Z,100.00
2022-12-18T19:41:10.924Z,100.00
2022-12-18T19:43:39.603Z,100.00
2022-12-18T19:46:08.855Z,100.00
2022-12-18T19:48:37.202Z,100.00
2022-12-18T19:51:12.317Z,100.00
2022-12-18T19:53:40.234Z,100.00
2022-12-18T19:56:09.839Z,100.00
2022-12-18T19:58:39.286Z,100.00
2022-12-18T20:01:07.778Z,100.00
2022-12-18T20:03:37.221Z,100.00
2022-12-18T20:06:14.934Z,100.00
2022-12-18T20:08:42.794Z,100.00
2022-12-18T20:11:10.548Z,100.00
2022-12-18T20:13:38.649Z,100.00
2022-12-18T20:16:06.869Z,100.00
2022-12-18T20:18:34.675Z,100.00
2022-12-18T20:21:02.631Z,100.00
2022-12-18T20:23:32.836Z,100.00
2022-12-18T20:26:02.168Z,100.00
2022-12-18T20:28:30.341Z,100.00
2022-12-18T20:31:02.536Z,100.00
2022-12-18T20:33:30.709Z,100.00
2022-12-18T20:36:02.441Z,100.00
2022-12-18T20:38:32.140Z,100.00
2022-12-18T20:41:02.394Z,100.00
2022-12-18T20:43:30.551Z,100.00
2022-12-18T20:46:03.098Z,100.00
2022-12-18T20:48:31.663Z,100.00
2022-12-18T20:51:00.199Z,100.00
2022-12-18T20:53:31.968Z,100.00
2022-12-18T20:55:59.796Z,100.00
2022-12-18T20:58:27.691Z,100.00
2022-12-18T21:01:04.178Z,100.00
2022-12-18T21:03:32.027Z,100.00
2022-12-18T21:05:59.808Z,100.00
2022-12-18T21:08:27.560Z,100.00
2022-12-18T21:10:57.129Z,100.00
2022-12-18T21:13:24.012Z,100.00
2022-12-18T21:15:54.202Z,100.00
2022-12-18T21:18:21.861Z,100.00
2022-12-18T21:20:49.709Z,100.00
2022-12-18T21:23:17.624Z,100.00
2022-12-18T21:25:45.767Z,100.00
2022-12-18T21:28:16.044Z,100.00
2022-12-18T21:30:44.074Z,100.00
2022-12-18T21:33:11.951Z,100.00
2022-12-18T21:35:39.696Z,100.00
2022-12-18T21:38:07.485Z,100.00
2022-12-18T21:40:35.477Z,100.00
2022-12-18T21:43:22.305Z,100.00
2022-12-18T21:45:51.473Z,100.00
2022-12-18T21:48:19.383Z,100.00
2022-12-18T21:50:47.029Z,100.00
2022-12-18T21:53:14.953Z,100.00
2022-12-18T21:55:42.827Z,100.00
2022-12-18T21:58:10.612Z,100.00
2022-12-18T22:00:38.340Z,100.00
2022-12-18T22:03:18.753Z,100.00
2022-12-18T22:05:46.982Z,100.00
2022-12-18T22:08:18.328Z,100.00
2022-12-18T22:10:46.354Z,100.00
2022-12-18T22:13:14.105Z,100.00
2022-12-18T22:15:41.878Z,100.00
2022-12-18T22:18:12.128Z,100.00
2022-12-18T22:20:39.888Z,100.00
2022-12-18T22:23:07.750Z,100.00
2022-12-18T22:25:35.996Z,100.00
2022-12-18T22:28:25.263Z,100.00
2022-12-18T22:30:55.990Z,100.00
2022-12-18T22:33:28.788Z,100.00
2022-12-18T22:35:56.574Z,100.00
2022-12-18T22:38:24.310Z,100.00
2022-12-18T22:40:52.023Z,100.00
2022-12-18T22:43:21.687Z,100.00
2022-12-18T22:45:49.523Z,100.00
2022-12-18T22:48:17.381Z,100.00
2022-12-18T22:50:46.447Z,100.00
2022-12-18T22:53:14.210Z,100.00
2022-12-18T22:55:41.911Z,100.00
2022-12-18T22:58:09.600Z,100.00
2022-12-18T23:00:37.339Z,100.00
2022-12-18T23:03:07.165Z,100.00
2022-12-18T23:05:35.359Z,100.00
2022-12-18T23:08:04.593Z,100.00
2022-12-18T23:10:32.334Z,100.00
2022-12-18T23:12:59.967Z,100.00
2022-12-18T23:15:28.637Z,100.00
2022-12-18T23:17:58.564Z,100.00
2022-12-18T23:20:27.030Z,100.00
2022-12-18T23:22:54.796Z,100.00
2022-12-18T23:25:24.271Z,100.00
2022-12-18T23:27:52.086Z,100.00
2022-12-18T23:30:20.131Z,100.00
2022-12-18T23:32:48.189Z,100.00
2022-12-18T23:35:16.163Z,100.00
2022-12-18T23:38:00.124Z,100.00
2022-12-18T23:40:30.353Z,100.00
2022-12-18T23:42:58.149Z,100.00
2022-12-18T23:45:25.859Z,100.00
2022-12-18T23:47:53.579Z,100.00
2022-12-18T23:50:22.782Z,100.00
2022-12-18T23:53:04.615Z,100.00
2022-12-18T23:55:35.391Z,100.00
2022-12-18T23:58:03.138Z,100.00
